createdAt,value
2023-01-10T00:00:25.255Z,12.30
2023-01-10T00:02:52.223Z,11.30
2023-01-10T00:05:19.081Z,11.40
2023-01-10T00:07:45.909Z,11.47
2023-01-10T00:10:12.411Z,10.17
2023-01-10T00:12:57.401Z,10.77
2023-01-10T00:15:23.817Z,10.97
2023-01-10T00:17:50.252Z,9.90
2023-01-10T00:20:16.697Z,9.67
2023-01-10T00:22:43.139Z,10.20
2023-01-10T00:25:09.719Z,8.93
2023-01-10T00:27:36.098Z,8.80
2023-01-10T00:30:12.111Z,9.47
2023-01-10T00:32:38.494Z,7.90
2023-01-10T00:35:06.772Z,7.87
2023-01-10T00:37:33.463Z,7.93
2023-01-10T00:40:00.639Z,8.10
2023-01-10T00:42:45.553Z,8.00
2023-01-10T00:45:12.020Z,7.20
2023-01-10T00:47:38.476Z,7.87
2023-01-10T00:50:08.755Z,7.23
2023-01-10T00:52:35.234Z,7.10
2023-01-10T00:55:01.850Z,8.03
2023-01-10T00:57:28.230Z,7.90
2023-01-10T00:59:54.612Z,7.50
2023-01-10T01:02:21.000Z,7.20
2023-01-10T01:04:47.428Z,7.80
2023-01-10T01:07:13.858Z,7.33
2023-01-10T01:10:00.250Z,7.90
2023-01-10T01:12:27.048Z,7.30
2023-01-10T01:14:53.457Z,6.27
2023-01-10T01:17:19.986Z,6.73
2023-01-10T01:19:46.400Z,6.40
2023-01-10T01:22:12.775Z,7.93
2023-01-10T01:24:39.572Z,7.33
2023-01-10T01:27:06.033Z,8.93
2023-01-10T01:29:43.021Z,6.13
2023-01-10T01:32:10.034Z,7.37
2023-01-10T01:34:36.682Z,7.20
2023-01-10T01:37:03.155Z,6.20
2023-01-10T01:39:29.543Z,6.40
2023-01-10T01:41:58.933Z,6.40
2023-01-10T01:44:29.516Z,7.07
2023-01-10T01:46:55.874Z,7.33
2023-01-10T01:49:23.453Z,7.30
2023-01-10T01:51:51.973Z,6.90
2023-01-10T01:54:19.446Z,8.93
2023-01-10T01:56:47.960Z,6.63
2023-01-10T01:59:17.219Z,6.83
2023-01-10T02:01:46.564Z,6.40
2023-01-10T02:04:24.435Z,6.20
2023-01-10T02:06:52.119Z,6.90
2023-01-10T02:09:22.185Z,7.30
2023-01-10T02:11:48.912Z,7.13
2023-01-10T02:14:15.432Z,7.27
2023-01-10T02:16:41.813Z,6.87
2023-01-10T02:19:11.267Z,5.57
2023-01-10T02:21:45.855Z,6.77
2023-01-10T02:24:42.559Z,6.50
2023-01-10T02:27:24.811Z,6.80
2023-01-10T02:30:09.453Z,7.47
2023-01-10T02:32:50.515Z,7.10
2023-01-10T02:35:35.518Z,6.87
2023-01-10T02:38:13.973Z,6.50
2023-01-10T02:40:40.395Z,6.67
2023-01-10T02:43:33.061Z,5.97
2023-01-10T02:46:02.556Z,6.80
2023-01-10T02:48:28.994Z,6.00
2023-01-10T02:50:55.372Z,7.67
2023-01-10T02:53:22.767Z,6.30
2023-01-10T02:56:07.973Z,7.27
2023-01-10T02:58:48.774Z,7.10
2023-01-10T03:01:27.119Z,6.40
2023-01-10T03:03:56.402Z,6.70
2023-01-10T03:06:31.874Z,6.03
2023-01-10T03:09:13.704Z,6.70
2023-01-10T03:11:42.408Z,6.13
2023-01-10T03:14:17.369Z,6.70
2023-01-10T03:16:45.292Z,7.10
2023-01-10T03:19:13.567Z,6.10
2023-01-10T03:21:41.061Z,6.27
2023-01-10T03:24:12.763Z,6.57
2023-01-10T03:26:52.748Z,6.03
2023-01-10T03:29:21.379Z,5.60
2023-01-10T03:31:52.031Z,6.23
2023-01-10T03:34:18.518Z,6.10
2023-01-10T03:37:05.191Z,5.90
2023-01-10T03:39:41.297Z,5.10
2023-01-10T03:42:10.492Z,5.57
2023-01-10T03:44:44.192Z,5.67
2023-01-10T03:47:28.038Z,6.43
2023-01-10T03:49:56.494Z,5.57
2023-01-10T03:52:23.176Z,5.80
2023-01-10T03:54:49.682Z,5.77
2023-01-10T03:57:20.012Z,5.07
2023-01-10T03:59:47.266Z,5.93
2023-01-10T04:02:13.686Z,5.50
2023-01-10T04:04:40.114Z,6.33
2023-01-10T04:07:07.129Z,5.33
2023-01-10T04:09:33.793Z,5.90
2023-01-10T04:12:00.283Z,5.47
2023-01-10T04:14:27.605Z,4.83
2023-01-10T04:16:54.226Z,5.10
2023-01-10T04:19:20.668Z,5.10
2023-01-10T04:21:47.087Z,5.33
2023-01-10T04:24:13.732Z,4.90
2023-01-10T04:26:40.232Z,4.77
2023-01-10T04:29:06.693Z,5.60
2023-01-10T04:31:33.257Z,4.63
2023-01-10T04:34:00.197Z,4.17
2023-01-10T04:36:26.577Z,4.77
2023-01-10T04:38:53.162Z,4.60
2023-01-10T04:41:19.620Z,4.93
2023-01-10T04:43:45.958Z,5.13
2023-01-10T04:46:12.398Z,5.10
2023-01-10T04:48:38.774Z,4.80
2023-01-10T04:51:05.267Z,5.03
2023-01-10T04:53:33.896Z,7.63
2023-01-10T04:56:07.771Z,4.40
2023-01-10T04:58:34.932Z,4.40
2023-01-10T05:01:07.087Z,4.27
2023-01-10T05:03:33.466Z,5.30
2023-01-10T05:06:00.268Z,4.13
2023-01-10T05:08:26.640Z,5.33
2023-01-10T05:10:53.006Z,4.30
2023-01-10T05:13:19.461Z,3.97
2023-01-10T05:15:45.841Z,4.00
2023-01-10T05:18:12.192Z,4.10
2023-01-10T05:20:38.566Z,3.63
2023-01-10T05:23:04.964Z,4.63
2023-01-10T05:25:31.402Z,3.50
2023-01-10T05:27:57.821Z,4.37
2023-01-10T05:30:24.149Z,3.87
2023-01-10T05:32:50.622Z,4.57
2023-01-10T05:35:17.526Z,3.50
2023-01-10T05:37:44.011Z,3.37
2023-01-10T05:40:10.694Z,4.20
2023-01-10T05:42:37.126Z,3.70
2023-01-10T05:45:04.652Z,4.00
2023-01-10T05:47:31.116Z,3.63
2023-01-10T05:49:57.535Z,4.53
2023-01-10T05:52:24.000Z,3.43
2023-01-10T05:54:50.483Z,3.70
2023-01-10T05:57:16.948Z,3.37
2023-01-10T05:59:43.601Z,4.13
2023-01-10T06:02:10.049Z,3.50
2023-01-10T06:04:36.515Z,4.73
2023-01-10T06:07:02.988Z,3.70
2023-01-10T06:09:29.377Z,3.70
2023-01-10T06:11:55.993Z,3.83
2023-01-10T06:14:22.582Z,4.27
2023-01-10T06:16:49.016Z,3.67
2023-01-10T06:19:15.471Z,3.33
2023-01-10T06:21:42.033Z,3.77
2023-01-10T06:24:08.804Z,3.90
2023-01-10T06:26:35.451Z,3.10
2023-01-10T06:29:02.081Z,4.37
2023-01-10T06:31:28.716Z,4.07
2023-01-10T06:33:55.164Z,4.00
2023-01-10T06:36:21.648Z,3.83
2023-01-10T06:38:48.113Z,3.50
2023-01-10T06:41:14.521Z,3.70
2023-01-10T06:43:47.855Z,3.57
2023-01-10T06:46:16.691Z,3.30
2023-01-10T06:48:45.043Z,4.67
2023-01-10T06:51:12.231Z,3.57
2023-01-10T06:53:39.510Z,3.30
2023-01-10T06:56:06.267Z,5.03
2023-01-10T06:58:32.856Z,4.03
2023-01-10T07:00:59.318Z,3.57
2023-01-10T07:03:25.844Z,3.50
2023-01-10T07:05:52.250Z,3.40
2023-01-10T07:08:18.677Z,3.73
2023-01-10T07:10:45.528Z,3.30
2023-01-10T07:13:11.943Z,3.80
2023-01-10T07:15:38.394Z,3.10
2023-01-10T07:18:04.827Z,4.30
2023-01-10T07:20:31.278Z,3.60
2023-01-10T07:22:58.871Z,4.23
2023-01-10T07:25:26.441Z,3.50
2023-01-10T07:27:55.421Z,4.17
2023-01-10T07:30:25.231Z,5.30
2023-01-10T07:32:58.680Z,4.03
2023-01-10T07:35:25.605Z,4.43
2023-01-10T07:37:52.067Z,4.07
2023-01-10T07:40:18.461Z,5.53
2023-01-10T07:42:44.946Z,3.90
2023-01-10T07:45:11.561Z,3.80
2023-01-10T07:47:38.018Z,4.57
2023-01-10T07:50:04.625Z,4.30
2023-01-10T07:52:31.179Z,4.50
2023-01-10T07:54:58.039Z,4.40
2023-01-10T07:57:24.401Z,4.73
2023-01-10T07:59:50.762Z,4.23
2023-01-10T08:02:17.177Z,4.73
2023-01-10T08:04:43.605Z,4.87
2023-01-10T08:07:10.016Z,5.70
2023-01-10T08:09:36.429Z,4.07
2023-01-10T08:12:03.127Z,4.30
2023-01-10T08:14:29.668Z,4.80
2023-01-10T08:16:56.077Z,5.07
2023-01-10T08:19:22.445Z,5.93
2023-01-10T08:21:48.908Z,4.87
2023-01-10T08:24:15.314Z,4.70
2023-01-10T08:26:41.998Z,5.33
2023-01-10T08:29:08.371Z,4.93
2023-01-10T08:31:34.784Z,4.50
2023-01-10T08:34:01.220Z,5.23
2023-01-10T08:36:29.246Z,4.70
2023-01-10T08:38:55.831Z,5.00
2023-01-10T08:41:22.745Z,5.93
2023-01-10T08:43:50.109Z,5.17
2023-01-10T08:46:17.488Z,4.93
2023-01-10T08:48:44.047Z,5.43
2023-01-10T08:51:10.547Z,5.40
2023-01-10T08:53:38.790Z,5.50
2023-01-10T08:56:05.783Z,6.63
2023-01-10T08:58:32.357Z,6.13
2023-01-10T09:00:58.832Z,5.03
2023-01-10T09:03:25.285Z,6.17
2023-01-10T09:05:51.680Z,5.63
2023-01-10T09:08:18.150Z,6.93
2023-01-10T09:10:44.615Z,7.13
2023-01-10T09:13:11.050Z,7.17
2023-01-10T09:15:38.560Z,7.47
2023-01-10T09:18:06.493Z,8.07
2023-01-10T09:20:34.095Z,7.83
2023-01-10T09:23:05.137Z,6.60
2023-01-10T09:25:31.675Z,8.03
2023-01-10T09:27:58.743Z,7.47
2023-01-10T09:30:25.787Z,8.77
2023-01-10T09:32:52.753Z,7.90
2023-01-10T09:35:19.176Z,6.87
2023-01-10T09:37:45.580Z,6.70
2023-01-10T09:40:16.771Z,6.97
2023-01-10T09:42:51.996Z,6.73
2023-01-10T09:45:18.572Z,6.17
2023-01-10T09:47:45.056Z,6.10
2023-01-10T09:50:15.480Z,7.17
2023-01-10T09:52:53.206Z,6.90
2023-01-10T09:55:28.063Z,6.83
2023-01-10T09:57:56.050Z,7.47
2023-01-10T10:00:31.717Z,6.43
2023-01-10T10:02:59.320Z,6.40
2023-01-10T10:05:26.716Z,7.23
2023-01-10T10:07:57.900Z,6.93
2023-01-10T10:10:26.069Z,6.53
2023-01-10T10:13:00.200Z,7.27
2023-01-10T10:15:32.264Z,7.00
2023-01-10T10:18:19.961Z,7.63
2023-01-10T10:20:46.455Z,7.57
2023-01-10T10:23:20.447Z,7.73
2023-01-10T10:26:07.531Z,7.67
2023-01-10T10:28:54.580Z,7.87
2023-01-10T10:31:30.992Z,7.90
2023-01-10T10:33:57.419Z,7.57
2023-01-10T10:36:47.224Z,6.63
2023-01-10T10:39:19.500Z,8.00
2023-01-10T10:41:48.292Z,7.63
2023-01-10T10:44:20.869Z,7.80
2023-01-10T10:46:47.312Z,8.57
2023-01-10T10:49:18.706Z,7.93
2023-01-10T10:51:48.189Z,8.53
2023-01-10T10:54:15.157Z,8.60
2023-01-10T10:56:42.226Z,7.87
2023-01-10T10:59:08.755Z,8.77
2023-01-10T11:01:35.330Z,8.60
2023-01-10T11:04:13.721Z,10.17
2023-01-10T11:06:41.745Z,8.73
2023-01-10T11:09:12.029Z,8.43
2023-01-10T11:11:45.531Z,9.33
2023-01-10T11:14:14.013Z,8.10
2023-01-10T11:16:41.765Z,8.13
2023-01-10T11:19:10.963Z,7.97
2023-01-10T11:21:39.885Z,8.10
2023-01-10T11:24:17.117Z,8.30
2023-01-10T11:26:44.065Z,7.80
2023-01-10T11:29:19.662Z,8.83
2023-01-10T11:31:47.406Z,8.03
2023-01-10T11:34:26.157Z,7.83
2023-01-10T11:36:53.590Z,8.67
2023-01-10T11:39:20.032Z,7.50
2023-01-10T11:41:48.505Z,8.47
2023-01-10T11:44:25.169Z,8.50
2023-01-10T11:46:53.567Z,8.10
2023-01-10T11:49:27.756Z,8.87
2023-01-10T11:51:57.033Z,7.67
2023-01-10T11:54:25.005Z,8.67
2023-01-10T11:57:02.743Z,8.47
2023-01-10T11:59:29.461Z,7.93
2023-01-10T12:02:05.074Z,7.67
2023-01-10T12:04:33.233Z,7.80
2023-01-10T12:07:02.949Z,7.90
2023-01-10T12:09:37.190Z,7.83
2023-01-10T12:12:04.492Z,8.40
2023-01-10T12:14:30.908Z,10.63
2023-01-10T12:17:01.367Z,8.80
2023-01-10T12:19:28.328Z,8.27
2023-01-10T12:21:55.949Z,10.57
2023-01-10T12:24:28.320Z,8.37
2023-01-10T12:26:55.569Z,8.27
2023-01-10T12:29:25.428Z,8.13
2023-01-10T12:31:53.471Z,8.77
2023-01-10T12:34:21.184Z,8.47
2023-01-10T12:37:19.937Z,8.30
2023-01-10T12:39:48.681Z,7.97
2023-01-10T12:42:56.933Z,7.90
2023-01-10T12:45:25.292Z,8.27
2023-01-10T12:48:01.438Z,8.07
2023-01-10T12:50:35.846Z,8.70
2023-01-10T12:53:11.314Z,8.53
2023-01-10T12:55:42.693Z,9.37
2023-01-10T12:58:18.070Z,8.93
2023-01-10T13:00:48.597Z,8.53
2023-01-10T13:03:18.746Z,8.13
2023-01-10T13:05:48.748Z,9.07
2023-01-10T13:08:21.268Z,9.00
2023-01-10T13:10:49.722Z,9.10
2023-01-10T13:13:20.614Z,9.37
2023-01-10T13:15:50.147Z,9.20
2023-01-10T13:18:23.789Z,9.00
2023-01-10T13:21:01.766Z,7.63
2023-01-10T13:23:30.482Z,8.47
2023-01-10T13:25:59.054Z,7.27
2023-01-10T13:28:27.168Z,9.00
2023-01-10T13:30:54.937Z,9.37
2023-01-10T13:33:53.956Z,8.83
2023-01-10T13:36:25.230Z,8.23
2023-01-10T13:38:54.427Z,8.90
2023-01-10T13:41:39.859Z,10.07
2023-01-10T13:44:13.521Z,8.77
2023-01-10T13:46:51.813Z,7.60
2023-01-10T13:49:23.847Z,8.30
2023-01-10T13:52:09.021Z,9.00
2023-01-10T13:54:35.561Z,8.53
2023-01-10T13:57:02.134Z,8.50
2023-01-10T13:59:46.997Z,7.87
2023-01-10T14:02:32.349Z,7.63
2023-01-10T14:05:04.686Z,7.87
2023-01-10T14:07:43.070Z,7.43
2023-01-10T14:10:10.810Z,7.43
2023-01-10T14:12:46.392Z,6.27
2023-01-10T14:15:21.938Z,6.57
2023-01-10T14:17:55.895Z,7.37
2023-01-10T14:20:23.273Z,6.63
2023-01-10T14:23:01.246Z,6.60
2023-01-10T14:25:28.602Z,6.83
2023-01-10T14:27:56.165Z,5.70
2023-01-10T14:30:33.396Z,5.97
2023-01-10T14:33:07.087Z,5.13
2023-01-10T14:35:39.515Z,5.03
2023-01-10T14:38:08.363Z,5.47
2023-01-10T14:40:41.146Z,5.47
2023-01-10T14:43:09.531Z,5.87
2023-01-10T14:45:59.134Z,5.53
2023-01-10T14:48:27.786Z,5.77
2023-01-10T14:51:15.504Z,5.07
2023-01-10T14:53:42.792Z,11.13
2023-01-10T14:56:41.622Z,9.70
2023-01-10T14:59:25.062Z,5.03
2023-01-10T15:01:52.433Z,4.87
2023-01-10T15:04:20.467Z,6.00
2023-01-10T15:06:55.088Z,5.87
2023-01-10T15:09:21.583Z,4.97
2023-01-10T15:11:48.990Z,5.40
2023-01-10T15:14:17.883Z,5.20
2023-01-10T15:16:48.398Z,6.57
2023-01-10T15:19:21.993Z,5.47
2023-01-10T15:21:49.017Z,5.10
2023-01-10T15:24:35.126Z,10.30
2023-01-10T15:27:06.138Z,5.93
2023-01-10T15:29:32.770Z,6.00
2023-01-10T15:32:10.654Z,5.73
2023-01-10T15:34:37.940Z,5.47
2023-01-10T15:37:04.750Z,5.10
2023-01-10T15:39:32.964Z,5.40
2023-01-10T15:42:01.418Z,6.07
2023-01-10T15:44:36.037Z,6.60
2023-01-10T15:47:02.632Z,6.97
2023-01-10T15:49:29.592Z,6.17
2023-01-10T15:51:56.740Z,6.37
2023-01-10T15:54:25.322Z,6.80
2023-01-10T15:56:51.855Z,6.63
2023-01-10T15:59:29.096Z,6.97
2023-01-10T16:02:03.049Z,7.40
2023-01-10T16:04:33.174Z,6.47
2023-01-10T16:07:12.305Z,7.23
2023-01-10T16:09:39.962Z,7.00
2023-01-10T16:12:25.195Z,7.00
2023-01-10T16:14:51.817Z,5.97
2023-01-10T16:17:18.284Z,6.97
2023-01-10T16:19:44.688Z,7.00
2023-01-10T16:22:14.660Z,6.60
2023-01-10T16:24:42.278Z,6.57
2023-01-10T16:27:10.155Z,7.53
2023-01-10T16:29:37.739Z,7.17
2023-01-10T16:32:11.523Z,6.60
2023-01-10T16:34:37.943Z,8.23
2023-01-10T16:37:04.418Z,7.53
2023-01-10T16:39:30.875Z,7.50
2023-01-10T16:42:16.165Z,8.13
2023-01-10T16:44:42.521Z,7.70
2023-01-10T16:47:08.888Z,7.80
2023-01-10T16:49:35.326Z,8.10
2023-01-10T16:52:03.157Z,9.30
2023-01-10T16:54:30.021Z,7.90
2023-01-10T16:56:56.559Z,7.37
2023-01-10T16:59:22.999Z,7.90
2023-01-10T17:01:54.707Z,7.60
2023-01-10T17:04:27.414Z,8.33
2023-01-10T17:06:54.095Z,8.10
2023-01-10T17:09:23.358Z,7.93
2023-01-10T17:11:51.744Z,8.57
2023-01-10T17:14:18.128Z,9.67
2023-01-10T17:16:44.512Z,8.30
2023-01-10T17:19:10.919Z,8.77
2023-01-10T17:21:37.343Z,8.37
2023-01-10T17:24:03.857Z,7.90
2023-01-10T17:26:30.562Z,9.77
2023-01-10T17:28:56.997Z,8.27
2023-01-10T17:31:23.587Z,8.33
2023-01-10T17:33:50.162Z,9.20
2023-01-10T17:36:19.161Z,8.77
2023-01-10T17:38:46.016Z,7.70
2023-01-10T17:41:12.523Z,7.73
2023-01-10T17:43:39.663Z,8.40
2023-01-10T17:46:06.366Z,8.40
2023-01-10T17:48:34.825Z,8.10
2023-01-10T17:51:01.773Z,8.30
2023-01-10T17:53:28.636Z,8.87
2023-01-10T17:55:56.511Z,8.20
2023-01-10T17:58:23.185Z,7.43
2023-01-10T18:00:49.837Z,7.07
2023-01-10T18:03:16.643Z,8.93
2023-01-10T18:05:50.497Z,6.67
2023-01-10T18:08:17.080Z,6.90
2023-01-10T18:10:43.745Z,7.00
2023-01-10T18:13:11.339Z,6.90
2023-01-10T18:15:42.274Z,7.87
2023-01-10T18:18:08.846Z,7.37
2023-01-10T18:20:35.315Z,8.13
2023-01-10T18:23:20.754Z,6.40
2023-01-10T18:25:51.035Z,7.23
2023-01-10T18:28:18.739Z,6.47
2023-01-10T18:30:46.460Z,6.43
2023-01-10T18:33:12.884Z,6.50
2023-01-10T18:35:39.333Z,6.83
2023-01-10T18:38:05.815Z,5.57
2023-01-10T18:40:32.253Z,6.03
2023-01-10T18:42:59.299Z,5.73
2023-01-10T18:45:30.751Z,6.50
2023-01-10T18:47:59.095Z,5.60
2023-01-10T18:50:26.236Z,6.23
2023-01-10T18:52:52.710Z,5.20
2023-01-10T18:55:19.280Z,5.30
2023-01-10T18:57:45.684Z,5.43
2023-01-10T19:00:12.477Z,4.93
2023-01-10T19:02:38.936Z,5.10
2023-01-10T19:05:09.445Z,4.73
2023-01-10T19:07:36.435Z,4.90
2023-01-10T19:10:03.400Z,4.77
2023-01-10T19:12:31.032Z,4.97
2023-01-10T19:14:57.539Z,4.53
2023-01-10T19:17:25.029Z,4.37
2023-01-10T19:19:54.110Z,5.30
2023-01-10T19:22:22.889Z,4.33
2023-01-10T19:24:49.775Z,4.60
2023-01-10T19:27:18.336Z,4.63
2023-01-10T19:29:48.306Z,4.23
2023-01-10T19:32:14.938Z,4.27
2023-01-10T19:34:41.390Z,4.40
2023-01-10T19:37:07.827Z,4.40
2023-01-10T19:39:35.284Z,3.93
2023-01-10T19:42:04.798Z,4.23
2023-01-10T19:44:31.337Z,4.43
2023-01-10T19:46:57.785Z,4.43
2023-01-10T19:49:24.549Z,3.67
2023-01-10T19:51:53.658Z,3.83
2023-01-10T19:54:20.323Z,5.23
2023-01-10T19:56:46.761Z,3.27
2023-01-10T19:59:17.776Z,4.60
2023-01-10T20:01:44.404Z,2.97
2023-01-10T20:04:10.983Z,3.30
2023-01-10T20:06:39.261Z,3.57
2023-01-10T20:09:06.494Z,3.77
2023-01-10T20:11:41.951Z,3.83
2023-01-10T20:14:11.294Z,3.63
2023-01-10T20:16:37.742Z,3.13
2023-01-10T20:19:10.993Z,3.23
2023-01-10T20:21:37.948Z,3.20
2023-01-10T20:24:08.255Z,2.50
2023-01-10T20:26:34.986Z,4.20
2023-01-10T20:29:02.227Z,4.17
2023-01-10T20:31:29.088Z,3.33
2023-01-10T20:33:55.682Z,3.07
2023-01-10T20:36:23.225Z,3.10
2023-01-10T20:38:49.668Z,3.50
2023-01-10T20:41:17.229Z,4.00
2023-01-10T20:43:43.864Z,3.47
2023-01-10T20:46:11.547Z,3.17
2023-01-10T20:48:38.514Z,4.00
2023-01-10T20:51:05.351Z,2.93
2023-01-10T20:53:32.063Z,3.63
2023-01-10T20:56:03.440Z,4.03
2023-01-10T20:58:30.046Z,2.93
2023-01-10T21:00:56.449Z,3.03
2023-01-10T21:03:22.891Z,4.00
2023-01-10T21:05:50.631Z,3.50
2023-01-10T21:08:18.359Z,3.93
2023-01-10T21:10:45.591Z,3.37
2023-01-10T21:13:12.191Z,3.53
2023-01-10T21:15:42.864Z,2.90
2023-01-10T21:18:10.915Z,3.63
2023-01-10T21:20:41.074Z,2.70
2023-01-10T21:23:07.514Z,4.07
2023-01-10T21:25:34.136Z,3.93
2023-01-10T21:28:00.563Z,2.70
2023-01-10T21:30:26.939Z,3.07
2023-01-10T21:32:53.409Z,2.43
2023-01-10T21:35:20.220Z,2.40
2023-01-10T21:37:46.644Z,2.80
2023-01-10T21:40:13.093Z,3.03
2023-01-10T21:42:44.779Z,3.03
2023-01-10T21:45:12.617Z,2.93
2023-01-10T21:47:39.706Z,2.87
2023-01-10T21:50:07.305Z,2.47
2023-01-10T21:52:33.697Z,2.57
2023-01-10T21:55:00.138Z,3.47
2023-01-10T21:57:27.113Z,2.20
2023-01-10T21:59:53.906Z,2.63
2023-01-10T22:02:21.345Z,2.30
2023-01-10T22:04:48.336Z,2.70
2023-01-10T22:07:14.997Z,2.37
2023-01-10T22:09:41.381Z,3.10
2023-01-10T22:12:08.283Z,2.50
2023-01-10T22:14:34.718Z,3.77
2023-01-10T22:17:01.132Z,3.07
2023-01-10T22:19:27.607Z,3.27
2023-01-10T22:21:53.958Z,3.33
2023-01-10T22:24:20.477Z,3.07
2023-01-10T22:26:46.851Z,4.33
2023-01-10T22:29:13.276Z,4.13
2023-01-10T22:31:41.348Z,3.87
2023-01-10T22:34:08.148Z,2.90
2023-01-10T22:36:34.573Z,3.73
2023-01-10T22:39:01.283Z,3.70
2023-01-10T22:41:28.969Z,3.80
2023-01-10T22:43:55.804Z,4.00
2023-01-10T22:46:22.506Z,3.87
2023-01-10T22:48:48.914Z,4.17
2023-01-10T22:51:16.375Z,3.90
2023-01-10T22:53:42.909Z,4.67
2023-01-10T22:56:10.979Z,4.43
2023-01-10T22:58:37.523Z,4.17
2023-01-10T23:01:04.575Z,4.63
2023-01-10T23:03:31.191Z,3.87
2023-01-10T23:05:57.973Z,5.00
2023-01-10T23:08:25.174Z,4.33
2023-01-10T23:10:51.617Z,3.93
2023-01-10T23:13:18.121Z,4.80
2023-01-10T23:15:44.525Z,4.63
2023-01-10T23:18:11.463Z,4.10
2023-01-10T23:20:38.052Z,4.17
2023-01-10T23:23:04.673Z,3.90
2023-01-10T23:25:31.067Z,4.93
2023-01-10T23:27:57.459Z,3.93
2023-01-10T23:30:26.768Z,4.07
2023-01-10T23:32:53.809Z,3.40
2023-01-10T23:35:20.357Z,3.90
2023-01-10T23:37:46.785Z,3.80
2023-01-10T23:40:13.284Z,3.20
2023-01-10T23:42:39.691Z,5.00
2023-01-10T23:45:06.470Z,3.60
2023-01-10T23:47:32.873Z,3.67
2023-01-10T23:49:59.277Z,4.17
2023-01-10T23:52:25.693Z,3.47
2023-01-10T23:54:54.076Z,3.37
2023-01-10T23:57:20.458Z,3.87
2023-01-10T23:59:46.925Z,4.00
